This is the latest recevied weather packets stored in our database for station/object OE7MFI-13. If no packets are shown the sender has not sent any weather packets the latest 10 day(s).
| Time | Temp. | Humidity | Pressure | Rain* | Wind** | Luminosity | Snow |
|---|---|---|---|---|---|---|---|
| 1777573737 | 8.89° C | 35% | - | 0 mm | - | - | - |
| 1777572535 | 10° C | 34% | - | 0 mm | - | - | - |
| 1777571943 | 10.56° C | 32% | - | 0 mm | - | - | - |
| 1777570729 | 10.56° C | 32% | - | 0 mm | - | - | - |
| 1777563527 | 13.33° C | 30% | - | 0 mm | - | - | - |
| 1777562329 | 13.89° C | 31% | - | 0 mm | - | - | - |
| 1777561757 | 13.89° C | 31% | - | 0 mm | - | - | - |
| 1777559927 | 13.89° C | 32% | - | 0 mm | - | - | - |
| 1777556938 | 13.89° C | 33% | - | 0 mm | - | - | - |
| 1777554535 | 13.89° C | 34% | - | 0 mm | - | - | - |
| 1777552157 | 13.89° C | 34% | - | 0 mm | - | - | - |
| 1777543129 | 12.22° C | 40% | - | 0 mm | - | - | - |
| 1777540136 | 11.67° C | 41% | - | 0 mm | - | - | - |
| 1777539527 | 11.11° C | 40% | - | 0 mm | - | - | - |
| 1777535357 | 8.89° C | 50% | - | 0 mm | - | - | - |
| 1777534137 | 7.78° C | 56% | - | 0 mm | - | - | - |
| 1777525127 | -2.22° C | 88% | - | 0 mm | - | - | - |
| 1777520935 | -2.22° C | 88% | - | 0 mm | - | - | - |
| 1777516726 | -1.67° C | 88% | - | 0 mm | - | - | - |
| 1777510136 | -0.56° C | 85% | - | 0 mm | - | - | - |
| 1777504727 | 1.11° C | 80% | - | 0 mm | - | - | - |
| 1777504136 | 1.11° C | 79% | - | 0 mm | - | - | - |
| 1777495734 | 5° C | 65% | - | 0 mm | - | - | - |
| 1777494555 | 6.11° C | 60% | - | 0 mm | - | - | - |
| 1777492136 | 8.33° C | 49% | - | 0 mm | - | - | - |
* Rain latest hour (hover to see other rain measurements)
** Current wind speed in m/s (hover to see current wind gust speed)